Time;durP1;ratioP1;P1;durP2;ratioP2;P2;SDS_P1;SDS_P2;PMS_P1;PMS_P2;Temp;Humidity;BMP_temperature;BMP_pressure;BME280_temperature;BME280_humidity;BME280_pressure;Samples;Min_cycle;Max_cycle;Signal;HPM_P1;HPM_P2
2023/02/01 00:01:00;;;;;;;2.70;1.38;;;5.30;90.40;;;;;;5078730;28;20040;-62
2023/02/01 00:03:27;;;;;;;4.40;1.75;;;5.30;90.40;;;;;;5085904;28;20250;-62
2023/02/01 00:05:59;;;;;;;3.67;2.00;;;5.30;90.40;;;;;;5089575;28;20518;-58
2023/02/01 00:08:27;;;;;;;2.30;1.40;;;5.30;90.30;;;;;;5086795;28;20044;-59
2023/02/01 00:11:01;;;;;;;1.92;1.20;;;5.30;90.10;;;;;;5088611;28;20048;-64
2023/02/01 00:13:30;;;;;;;3.67;1.77;;;5.30;89.90;;;;;;5087084;28;20070;-63
2023/02/01 00:16:04;;;;;;;3.92;2.00;;;5.30;90.00;;;;;;5089229;28;20419;-63
2023/02/01 00:18:37;;;;;;;2.58;1.80;;;5.30;90.10;;;;;;5085520;28;20056;-62
2023/02/01 00:21:06;;;;;;;2.58;1.38;;;5.30;90.10;;;;;;5088043;28;20478;-59
2023/02/01 00:23:34;;;;;;;3.28;1.60;;;5.30;90.30;;;;;;5086647;28;20056;-59
2023/02/01 00:26:02;;;;;;;3.05;1.60;;;5.30;90.10;;;;;;5088624;28;20048;-62
2023/02/01 00:28:32;;;;;;;3.25;1.77;;;5.30;90.10;;;;;;5087101;28;20052;-61
2023/02/01 00:31:00;;;;;;;3.60;1.85;;;5.30;90.00;;;;;;5089371;28;20055;-59
2023/02/01 00:33:27;;;;;;;3.70;2.05;;;5.30;90.20;;;;;;5083882;28;20052;-59
2023/02/01 00:35:58;;;;;;;4.60;2.33;;;5.30;90.30;;;;;;5085997;28;20044;-69
2023/02/01 00:38:27;;;;;;;4.63;2.20;;;5.30;90.20;;;;;;5086440;28;20123;-69
2023/02/01 00:40:54;;;;;;;5.65;1.98;;;5.30;90.30;;;;;;5068138;28;20056;-60
2023/02/01 00:43:21;;;;;;;5.75;2.45;;;5.30;90.10;;;;;;5083986;28;20398;-60
2023/02/01 00:45:48;;;;;;;6.03;2.22;;;5.30;90.20;;;;;;5084043;28;20483;-58
2023/02/01 00:48:14;;;;;;;6.95;2.53;;;5.30;90.30;;;;;;5085088;28;20046;-58
2023/02/01 00:50:42;;;;;;;4.90;2.70;;;5.30;90.10;;;;;;5085028;28;20048;-63
2023/02/01 00:53:09;;;;;;;5.13;2.40;;;5.30;90.20;;;;;;5083747;28;20064;-63
2023/02/01 00:55:39;;;;;;;5.00;2.50;;;5.30;90.10;;;;;;5083432;28;20138;-60
2023/02/01 00:58:09;;;;;;;5.22;2.20;;;5.30;90.30;;;;;;5082897;28;20063;-60
2023/02/01 01:00:36;;;;;;;4.93;2.85;;;5.30;90.20;;;;;;5083283;28;20127;-60
2023/02/01 01:03:17;;;;;;;4.55;2.55;;;5.30;90.20;;;;;;5082377;28;20063;-58
2023/02/01 01:05:44;;;;;;;;;;;5.30;90.20;;;;;;5083538;28;20066;-67
2023/02/01 01:08:11;;;;;;;5.15;2.42;;;5.30;90.10;;;;;;5074259;28;19928;-66
2023/02/01 01:10:40;;;;;;;4.28;2.55;;;5.30;90.10;;;;;;5084398;28;20048;-62
2023/02/01 01:13:13;;;;;;;4.40;2.28;;;5.30;90.10;;;;;;5064001;28;20105;-62
2023/02/01 01:15:41;;;;;;;4.63;2.33;;;5.30;90.20;;;;;;5086594;28;20052;-62
2023/02/01 01:18:09;;;;;;;4.63;2.60;;;5.30;90.00;;;;;;5083721;28;20068;-63
2023/02/01 01:20:37;;;;;;;4.53;2.40;;;5.30;90.20;;;;;;5067340;28;20048;-64
2023/02/01 01:23:08;;;;;;;3.97;2.47;;;5.30;89.90;;;;;;5063494;28;20093;-64
2023/02/01 01:25:40;;;;;;;6.00;2.58;;;5.30;89.90;;;;;;5083412;28;20055;-70
2023/02/01 01:28:08;;;;;;;5.95;2.25;;;5.40;89.80;;;;;;5084048;28;20052;-69
2023/02/01 01:30:35;;;;;;;5.43;2.92;;;5.40;89.90;;;;;;5067350;28;20052;-63
2023/02/01 01:33:06;;;;;;;4.93;2.70;;;5.40;89.90;;;;;;5083285;28;20046;-64
2023/02/01 01:35:34;;;;;;;5.38;3.20;;;5.40;90.10;;;;;;5080551;28;20050;-64
2023/02/01 01:38:02;;;;;;;4.63;2.67;;;5.40;89.90;;;;;;5085030;28;20052;-69
2023/02/01 01:40:30;;;;;;;4.90;2.95;;;5.40;90.10;;;;;;5068208;28;20040;-69
2023/02/01 01:43:02;;;;;;;6.03;2.80;;;5.30;90.10;;;;;;5085419;28;20109;-68
2023/02/01 01:45:31;;;;;;;6.90;3.13;;;5.30;89.90;;;;;;5084985;28;20060;-68
2023/02/01 01:48:00;;;;;;;5.57;2.85;;;5.30;89.90;;;;;;5063482;28;20044;-69
2023/02/01 01:50:32;;;;;;;5.13;3.03;;;5.40;90.10;;;;;;5068810;28;20055;-70
2023/02/01 01:53:04;;;;;;;6.25;3.33;;;5.30;90.00;;;;;;5088782;28;20036;-69
2023/02/01 01:55:34;;;;;;;4.95;2.85;;;5.40;89.90;;;;;;5075852;28;20564;-69
2023/02/01 01:58:05;;;;;;;;;;;5.30;90.00;;;;;;5063802;28;20044;-69
2023/02/01 02:00:32;;;;;;;5.03;2.92;;;5.40;89.90;;;;;;5086262;28;19959;-69
2023/02/01 02:03:04;;;;;;;5.82;2.78;;;5.30;89.80;;;;;;5089397;28;20048;-69
2023/02/01 02:05:31;;;;;;;4.05;2.50;;;5.40;89.70;;;;;;5090165;28;20040;-70
2023/02/01 02:08:01;;;;;;;4.38;2.60;;;5.40;89.70;;;;;;5089758;28;20052;-70
2023/02/01 02:13:11;;;;;;;4.70;2.40;;;5.40;89.90;;;;;;5087803;28;20053;-71
2023/02/01 02:15:44;;;;;;;5.53;2.70;;;5.40;89.80;;;;;;5089115;28;20048;-61
2023/02/01 02:18:18;;;;;;;6.15;2.67;;;5.40;90.00;;;;;;5088161;28;20072;-60
2023/02/01 02:21:02;;;;;;;5.40;2.53;;;5.40;89.70;;;;;;5091656;28;20044;-60
2023/02/01 02:24:07;;;;;;;4.50;2.45;;;5.30;89.90;;;;;;5090383;28;20040;-59
2023/02/01 02:26:47;;;;;;;6.38;2.63;;;5.40;89.90;;;;;;5038345;28;20067;-65
2023/02/01 02:29:55;;;;;;;5.95;2.75;;;5.40;89.70;;;;;;5082612;28;20475;-65
2023/02/01 02:32:48;;;;;;;4.53;2.45;;;5.40;89.90;;;;;;5060027;28;20036;-57
2023/02/01 02:35:25;;;;;;;6.15;2.78;;;5.40;89.90;;;;;;5084838;28;20067;-59
2023/02/01 02:38:00;;;;;;;4.95;2.90;;;5.40;89.80;;;;;;5068784;28;20056;-60
2023/02/01 02:40:33;;;;;;;4.63;2.72;;;5.40;89.90;;;;;;5088641;28;20051;-59
2023/02/01 02:48:52;;;;;;;7.43;3.17;;;5.40;89.80;;;;;;5086240;28;20064;-61
2023/02/01 03:05:20;;;;;;;6.05;3.08;;;5.40;90.00;;;;;;5069152;28;20116;-59
2023/02/01 03:07:58;;;;;;;5.63;2.80;;;5.40;89.90;;;;;;5086668;28;20052;-58
2023/02/01 03:10:33;;;;;;;5.95;2.90;;;5.40;89.90;;;;;;5085979;28;20068;-58
2023/02/01 03:13:07;;;;;;;5.45;3.25;;;5.40;89.80;;;;;;5068368;28;20115;-60
2023/02/01 03:15:40;;;;;;;5.38;3.00;;;5.40;89.90;;;;;;5083138;28;20568;-59
2023/02/01 03:18:14;;;;;;;5.90;3.13;;;5.40;89.70;;;;;;5086878;28;20394;-65
2023/02/01 03:20:43;;;;;;;5.47;2.88;;;5.40;90.00;;;;;;5088650;28;20121;-60
2023/02/01 03:23:15;;;;;;;5.20;3.30;;;5.40;90.00;;;;;;5076066;28;20046;-59
2023/02/01 03:25:43;;;;;;;5.85;3.13;;;5.40;90.00;;;;;;5084388;28;20063;-62
2023/02/01 03:28:12;;;;;;;7.28;3.80;;;5.40;89.90;;;;;;5067826;28;20166;-62
2023/02/01 03:30:42;;;;;;;5.78;3.20;;;5.40;89.90;;;;;;5083131;28;20143;-61
2023/02/01 03:33:21;;;;;;;6.93;3.40;;;5.40;89.90;;;;;;5067885;28;20048;-62
2023/02/01 03:35:57;;;;;;;6.60;3.17;;;5.40;89.90;;;;;;5066887;28;20481;-65
2023/02/01 03:38:31;;;;;;;5.55;3.10;;;5.40;90.00;;;;;;5065264;28;20052;-66
2023/02/01 03:41:08;;;;;;;5.25;3.55;;;5.40;90.00;;;;;;5068112;28;20078;-61
2023/02/01 03:43:43;;;;;;;5.68;3.20;;;5.40;89.90;;;;;;5060227;28;20044;-59
2023/02/01 03:46:18;;;;;;;5.95;3.50;;;5.40;90.00;;;;;;5085177;28;20097;-63
2023/02/01 03:48:45;;;;;;;7.20;3.35;;;5.40;90.00;;;;;;5065777;28;20048;-64
2023/02/01 03:51:14;;;;;;;6.13;3.33;;;5.40;89.80;;;;;;5065369;28;20427;-59
2023/02/01 03:53:46;;;;;;;7.65;3.42;;;5.40;89.80;;;;;;5084447;28;20079;-59
2023/02/01 03:56:13;;;;;;;8.88;3.53;;;5.40;89.90;;;;;;5080958;28;20227;-64
2023/02/01 03:58:40;;;;;;;6.28;3.60;;;5.40;89.80;;;;;;5068419;28;20482;-64
2023/02/01 04:01:07;;;;;;;6.82;3.50;;;5.40;89.90;;;;;;5060147;28;20059;-62
2023/02/01 04:03:40;;;;;;;7.20;3.72;;;5.40;89.80;;;;;;5065478;28;20063;-63
2023/02/01 04:06:07;;;;;;;9.82;3.67;;;5.40;89.70;;;;;;5063859;28;20659;-69
2023/02/01 04:08:34;;;;;;;8.57;3.03;;;5.40;89.80;;;;;;5066898;28;20066;-69
2023/02/01 04:11:02;;;;;;;5.95;2.78;;;5.40;89.70;;;;;;5086179;28;20077;-62
2023/02/01 04:13:35;;;;;;;7.75;3.03;;;5.40;89.80;;;;;;5087432;28;20101;-62
2023/02/01 04:16:02;;;;;;;5.72;2.80;;;5.40;89.70;;;;;;5085090;28;20048;-65
2023/02/01 04:18:29;;;;;;;5.53;3.22;;;5.40;89.60;;;;;;5083600;28;20534;-65
2023/02/01 04:20:55;;;;;;;5.25;2.83;;;5.40;89.60;;;;;;5088173;28;20052;-59
2023/02/01 04:23:22;;;;;;;5.60;2.85;;;5.40;89.50;;;;;;5086807;28;20437;-58
2023/02/01 04:25:49;;;;;;;5.13;3.05;;;5.40;89.60;;;;;;5085584;28;20040;-65
2023/02/01 04:28:19;;;;;;;3.50;2.33;;;5.40;89.60;;;;;;5087019;28;20044;-65
2023/02/01 04:30:46;;;;;;;5.63;3.05;;;5.40;89.50;;;;;;5087638;28;20491;-59
2023/02/01 04:33:14;;;;;;;6.03;2.65;;;5.40;89.70;;;;;;5075535;28;20483;-59
2023/02/01 04:35:41;;;;;;;6.47;2.80;;;5.40;89.50;;;;;;5085692;28;20072;-63
2023/02/01 04:38:08;;;;;;;5.47;2.90;;;5.40;89.50;;;;;;5086344;28;20059;-62
2023/02/01 04:40:37;;;;;;;6.65;2.70;;;5.40;89.50;;;;;;5086747;28;20055;-63
2023/02/01 04:43:04;;;;;;;5.78;2.95;;;5.40;89.60;;;;;;5084432;28;20539;-63
2023/02/01 04:45:32;;;;;;;6.32;2.67;;;5.40;89.50;;;;;;5086350;28;20437;-63
2023/02/01 04:47:59;;;;;;;5.72;2.88;;;5.40;89.50;;;;;;5084830;28;20379;-62
2023/02/01 04:50:25;;;;;;;5.32;2.75;;;5.40;89.60;;;;;;5077933;28;20060;-62
2023/02/01 04:52:52;;;;;;;5.47;2.45;;;5.40;89.50;;;;;;5084264;28;20051;-64
2023/02/01 04:55:19;;;;;;;4.40;2.08;;;5.40;89.50;;;;;;5083089;28;20032;-65
2023/02/01 04:57:46;;;;;;;7.07;2.45;;;5.40;89.50;;;;;;5076850;28;20044;-63
2023/02/01 05:00:14;;;;;;;6.15;2.40;;;5.40;89.20;;;;;;5083537;28;20494;-64
2023/02/01 05:02:42;;;;;;;6.05;2.38;;;5.40;89.30;;;;;;5080328;28;21080;-64
2023/02/01 05:05:09;;;;;;;6.72;2.92;;;5.40;89.30;;;;;;5083464;28;20105;-63
2023/02/01 05:07:36;;;;;;;4.70;2.10;;;5.40;89.30;;;;;;5084223;28;20495;-64
2023/02/01 05:10:03;;;;;;;7.22;2.15;;;5.40;89.40;;;;;;5083657;28;20505;-63
2023/02/01 05:15:28;;;;;;;4.90;2.10;;;5.40;89.30;;;;;;5044532;28;20044;-64
2023/02/01 05:17:56;;;;;;;4.85;2.00;;;5.40;89.30;;;;;;5086007;28;20048;-64
2023/02/01 05:20:23;;;;;;;6.40;2.03;;;5.40;89.20;;;;;;5087157;28;20434;-64
2023/02/01 05:22:54;;;;;;;3.80;1.65;;;5.40;89.20;;;;;;5087677;28;20122;-63
2023/02/01 05:25:21;;;;;;;6.60;1.90;;;5.40;89.10;;;;;;5088816;28;20580;-63
2023/02/01 05:27:48;;;;;;;6.53;2.10;;;5.40;89.10;;;;;;5089511;28;20545;-60
2023/02/01 05:30:15;;;;;;;4.40;1.77;;;5.40;89.00;;;;;;5087559;28;20041;-59
2023/02/01 05:32:42;;;;;;;4.43;1.88;;;5.40;89.00;;;;;;5088918;28;20081;-61
2023/02/01 05:35:10;;;;;;;5.93;1.98;;;5.40;89.00;;;;;;5085496;28;20077;-61
2023/02/01 05:37:37;;;;;;;5.53;1.65;;;5.40;88.90;;;;;;5086865;28;20044;-65
2023/02/01 05:40:05;;;;;;;4.15;1.73;;;5.40;89.00;;;;;;5076999;28;20043;-63
2023/02/01 05:42:32;;;;;;;6.32;1.75;;;5.40;88.90;;;;;;5086924;28;20044;-65
2023/02/01 05:44:58;;;;;;;7.35;1.85;;;5.40;88.90;;;;;;5088415;28;20059;-65
2023/02/01 05:47:25;;;;;;;5.05;1.65;;;5.40;88.90;;;;;;5086473;28;20040;-63
2023/02/01 05:49:52;;;;;;;3.50;1.42;;;5.40;88.90;;;;;;5089105;28;20048;-63
2023/02/01 05:52:20;;;;;;;4.50;1.52;;;5.40;88.80;;;;;;5090009;28;20044;-62
2023/02/01 05:54:47;;;;;;;4.30;1.63;;;5.40;88.80;;;;;;5089001;28;20055;-62
2023/02/01 05:57:14;;;;;;;5.05;1.75;;;5.40;88.80;;;;;;5085922;28;20064;-62
2023/02/01 05:59:45;;;;;;;4.15;1.80;;;5.40;88.80;;;;;;5087101;28;20048;-61
2023/02/01 06:02:12;;;;;;;4.20;1.70;;;5.40;88.80;;;;;;5088778;28;20548;-58
2023/02/01 06:04:39;;;;;;;4.75;1.50;;;5.40;88.80;;;;;;5087515;28;20498;-59
2023/02/01 06:07:07;;;;;;;5.13;1.80;;;5.40;88.80;;;;;;5088073;28;20040;-63
2023/02/01 06:09:36;;;;;;;4.35;1.70;;;5.40;88.80;;;;;;5087971;28;20066;-62
2023/02/01 06:12:04;;;;;;;6.10;2.35;;;5.40;88.90;;;;;;5088902;28;20055;-60
2023/02/01 06:14:31;;;;;;;7.75;2.35;;;5.40;88.90;;;;;;5087259;28;20048;-61
2023/02/01 06:16:57;;;;;;;5.30;2.45;;;5.40;89.00;;;;;;5087315;28;20085;-65
2023/02/01 06:19:25;;;;;;;6.22;2.33;;;5.40;89.00;;;;;;5085021;28;20063;-65
2023/02/01 06:21:52;;;;;;;6.25;2.67;;;5.40;89.10;;;;;;5087483;28;20510;-64
2023/02/01 06:24:22;;;;;;;5.25;2.22;;;5.40;89.20;;;;;;5086338;28;20479;-63
2023/02/01 06:26:53;;;;;;;5.70;2.75;;;5.40;89.30;;;;;;5087483;28;20048;-59
2023/02/01 06:29:20;;;;;;;5.53;2.85;;;5.40;89.30;;;;;;5084817;28;20044;-59
2023/02/01 06:31:46;;;;;;;5.70;2.70;;;5.40;89.30;;;;;;5088228;28;20047;-59
2023/02/01 06:34:13;;;;;;;6.22;2.50;;;5.40;89.20;;;;;;5084417;28;20052;-59
2023/02/01 06:36:40;;;;;;;6.70;3.05;;;5.40;89.30;;;;;;5089590;28;20051;-67
2023/02/01 06:39:07;;;;;;;8.93;3.15;;;5.40;89.20;;;;;;5085259;28;20510;-68
2023/02/01 06:41:34;;;;;;;4.97;2.58;;;5.40;89.30;;;;;;5085994;28;20052;-69
2023/02/01 06:44:02;;;;;;;5.57;2.58;;;5.40;89.30;;;;;;5090474;28;20139;-69
2023/02/01 06:46:29;;;;;;;7.65;2.80;;;5.40;89.30;;;;;;5086129;28;20055;-60
2023/02/01 06:48:56;;;;;;;4.85;2.47;;;5.40;89.40;;;;;;5089237;28;20048;-60
2023/02/01 06:51:25;;;;;;;5.43;2.38;;;5.40;89.20;;;;;;5087846;28;20044;-68
2023/02/01 06:53:52;;;;;;;7.63;3.28;;;5.40;89.20;;;;;;5088870;28;20044;-69
2023/02/01 06:56:19;;;;;;;7.70;2.60;;;5.40;89.20;;;;;;5088223;28;20053;-59
2023/02/01 06:58:46;;;;;;;6.60;2.60;;;5.50;89.10;;;;;;5087484;28;20139;-59
2023/02/01 07:01:15;;;;;;;5.88;2.35;;;5.40;89.10;;;;;;5084964;28;20104;-67
2023/02/01 07:03:43;;;;;;;7.20;2.50;;;5.40;88.90;;;;;;5086590;28;20064;-69
2023/02/01 07:06:10;;;;;;;5.47;2.38;;;5.50;88.70;;;;;;5086930;28;20048;-60
2023/02/01 07:08:38;;;;;;;8.60;2.38;;;5.40;88.60;;;;;;5090060;28;20078;-59
2023/02/01 07:11:08;;;;;;;7.78;2.60;;;5.40;88.70;;;;;;5086263;28;20038;-68
2023/02/01 07:13:36;;;;;;;6.60;2.10;;;5.40;88.60;;;;;;5087442;28;20138;-68
2023/02/01 07:16:05;;;;;;;7.55;2.20;;;5.40;88.60;;;;;;5086456;28;20040;-59
2023/02/01 07:18:33;;;;;;;5.85;2.08;;;5.30;88.60;;;;;;5085731;28;20410;-60
2023/02/01 07:21:00;;;;;;;5.63;2.28;;;5.40;88.50;;;;;;5083680;28;20048;-61
2023/02/01 07:23:28;;;;;;;5.63;2.15;;;5.30;88.50;;;;;;5085621;28;20051;-60
2023/02/01 07:25:56;;;;;;;5.32;2.35;;;5.30;88.60;;;;;;5087172;28;20048;-66
2023/02/01 07:28:23;;;;;;;5.18;2.15;;;5.30;88.60;;;;;;5085188;28;20144;-65
2023/02/01 07:30:51;;;;;;;7.18;2.25;;;5.30;88.50;;;;;;5085066;28;20051;-59
2023/02/01 07:33:20;;;;;;;3.92;1.52;;;5.30;88.50;;;;;;5085200;28;20048;-59
2023/02/01 07:35:49;;;;;;;6.13;2.72;;;5.30;88.50;;;;;;5087281;28;20567;-70
2023/02/01 07:38:16;;;;;;;4.70;2.10;;;5.30;88.50;;;;;;5085923;28;20040;-68
2023/02/01 07:40:43;;;;;;;6.18;1.80;;;5.40;88.50;;;;;;5088214;28;20074;-63
2023/02/01 07:43:10;;;;;;;6.93;2.28;;;5.30;88.40;;;;;;5085031;28;20044;-63
2023/02/01 07:45:40;;;;;;;7.15;1.77;;;5.40;88.40;;;;;;5083315;28;20040;-64
2023/02/01 07:48:06;;;;;;;4.75;2.13;;;5.40;88.30;;;;;;5084634;28;20140;-69
2023/02/01 07:50:34;;;;;;;8.05;2.25;;;5.40;88.30;;;;;;5081949;28;20073;-67
2023/02/01 07:53:02;;;;;;;6.28;2.00;;;5.40;88.30;;;;;;5085478;28;20052;-67
2023/02/01 07:55:29;;;;;;;5.28;2.00;;;5.40;88.30;;;;;;5082285;28;20521;-69
2023/02/01 07:57:58;;;;;;;8.18;2.15;;;5.40;88.30;;;;;;5086748;28;20056;-68
2023/02/01 08:03:10;;;;;;;4.97;1.67;;;5.40;88.10;;;;;;5084617;28;20047;-68
2023/02/01 08:05:38;;;;;;;7.07;1.98;;;5.40;88.10;;;;;;5084030;28;20051;-65
2023/02/01 08:08:07;;;;;;;7.55;1.85;;;5.40;88.00;;;;;;5084472;28;20048;-61
2023/02/01 08:10:35;;;;;;;7.30;2.17;;;5.40;88.00;;;;;;5084408;28;20105;-60
2023/02/01 08:13:02;;;;;;;8.40;2.53;;;5.50;87.80;;;;;;5086950;28;21222;-61
2023/02/01 08:15:30;;;;;;;4.72;1.77;;;5.50;87.80;;;;;;5086057;28;20044;-61
2023/02/01 08:17:58;;;;;;;8.80;2.58;;;5.50;87.80;;;;;;5084359;28;20044;-60
2023/02/01 08:20:26;;;;;;;10.48;2.30;;;5.50;87.70;;;;;;5084436;28;20127;-61
2023/02/01 08:22:53;;;;;;;7.05;2.40;;;5.50;87.70;;;;;;5084677;28;20063;-70
2023/02/01 08:25:21;;;;;;;8.80;2.58;;;5.50;87.70;;;;;;5086582;28;20406;-67
2023/02/01 08:27:49;;;;;;;9.30;2.08;;;5.50;87.60;;;;;;5086847;28;20067;-62
2023/02/01 08:30:16;;;;;;;8.40;2.00;;;5.50;87.50;;;;;;5087212;28;20780;-61
2023/02/01 08:32:43;;;;;;;7.68;2.47;;;5.50;87.40;;;;;;5087085;28;20052;-60
2023/02/01 08:35:10;;;;;;;10.75;2.92;;;5.50;87.40;;;;;;5082771;28;20063;-60
2023/02/01 08:37:37;;;;;;;8.18;2.45;;;5.50;87.30;;;;;;5084856;28;20067;-63
2023/02/01 08:40:05;;;;;;;7.47;2.80;;;5.60;87.30;;;;;;5087849;28;20055;-62
2023/02/01 08:42:51;;;;;;;8.13;3.15;;;5.60;87.10;;;;;;5084340;28;20044;-78
2023/02/01 08:45:19;;;;;;;12.82;3.22;;;5.50;86.90;;;;;;5082825;28;20039;-69
2023/02/01 08:47:47;;;;;;;10.48;3.15;;;5.50;87.00;;;;;;5084994;28;20055;-60
2023/02/01 08:50:14;;;;;;;10.80;3.65;;;5.60;86.80;;;;;;5085992;28;20131;-59
2023/02/01 08:52:41;;;;;;;10.85;3.63;;;5.60;86.90;;;;;;5082627;28;20075;-60
2023/02/01 08:55:09;;;;;;;13.95;5.90;;;5.60;86.70;;;;;;5082528;28;20048;-60
2023/02/01 08:57:38;;;;;;;13.70;6.10;;;5.60;86.60;;;;;;5084144;28;20052;-62
2023/02/01 09:00:11;;;;;;;16.70;5.18;;;5.60;86.40;;;;;;5085709;28;20877;-65
2023/02/01 09:02:38;;;;;;;22.42;8.07;;;5.60;86.20;;;;;;5083890;28;20513;-59
2023/02/01 09:05:06;;;;;;;16.13;7.28;;;5.60;86.20;;;;;;5083445;28;20483;-58
2023/02/01 09:07:34;;;;;;;15.20;6.13;;;5.60;86.10;;;;;;5084693;28;20135;-59
2023/02/01 09:10:01;;;;;;;16.70;6.07;;;5.60;85.90;;;;;;5085680;28;20043;-59
2023/02/01 09:12:28;;;;;;;16.00;6.85;;;5.60;86.00;;;;;;5083918;28;20044;-58
2023/02/01 09:14:59;;;;;;;15.32;8.73;;;5.60;85.80;;;;;;5088673;28;20062;-57
2023/02/01 09:17:26;;;;;;;13.15;8.43;;;5.50;85.60;;;;;;5084285;28;20121;-58
2023/02/01 09:19:53;;;;;;;7.60;5.60;;;5.60;85.60;;;;;;5081716;28;20044;-59
2023/02/01 09:22:20;;;;;;;11.23;4.40;;;5.60;85.00;;;;;;5082232;28;20044;-59
2023/02/01 09:24:47;;;;;;;11.55;4.72;;;5.60;84.90;;;;;;5085965;28;20043;-59
2023/02/01 09:27:14;;;;;;;8.40;4.43;;;5.60;84.90;;;;;;5084112;28;20406;-59
2023/02/01 09:29:41;;;;;;;10.05;3.72;;;5.60;84.70;;;;;;5087203;28;20456;-59
2023/02/01 09:32:09;;;;;;;7.93;3.85;;;5.60;85.00;;;;;;5084038;28;20101;-59
2023/02/01 09:34:36;;;;;;;7.20;2.72;;;5.60;84.90;;;;;;5083853;28;20051;-61
2023/02/01 09:37:03;;;;;;;9.07;3.65;;;5.60;84.80;;;;;;5083207;28;20067;-57
2023/02/01 09:39:30;;;;;;;12.00;5.88;;;5.60;84.70;;;;;;5084938;28;20056;-59
2023/02/01 09:42:05;;;;;;;10.43;5.43;;;5.60;84.80;;;;;;5084556;28;20089;-59
2023/02/01 09:44:45;;;;;;;11.73;5.28;;;5.60;84.80;;;;;;5081135;28;20360;-59
2023/02/01 09:47:16;;;;;;;12.20;4.78;;;5.60;85.00;;;;;;5083703;28;20044;-59
2023/02/01 09:49:52;;;;;;;10.70;4.90;;;5.60;85.10;;;;;;5083740;28;20062;-59
2023/02/01 09:52:24;;;;;;;11.60;4.35;;;5.60;85.00;;;;;;5082456;28;20473;-59
2023/02/01 09:54:58;;;;;;;13.38;6.80;;;5.60;84.90;;;;;;5083462;28;20059;-59
2023/02/01 09:57:34;;;;;;;14.55;7.93;;;5.60;84.90;;;;;;5084117;28;20055;-58
2023/02/01 10:00:05;;;;;;;10.73;6.28;;;5.60;84.90;;;;;;5083767;28;20053;-59
2023/02/01 10:02:41;;;;;;;11.05;4.88;;;5.60;84.90;;;;;;5081433;28;20055;-59
2023/02/01 10:05:14;;;;;;;9.45;4.57;;;5.60;84.80;;;;;;5077968;28;20048;-58
2023/02/01 10:07:48;;;;;;;11.05;3.55;;;5.60;84.90;;;;;;5084446;28;20040;-59
2023/02/01 10:10:21;;;;;;;6.40;2.40;;;5.60;84.80;;;;;;5087171;28;20044;-58
2023/02/01 10:13:23;;;;;;;7.90;2.70;;;5.60;84.90;;;;;;5087788;28;20044;-58
2023/02/01 10:16:23;;;;;;;7.85;2.83;;;5.70;84.90;;;;;;5086441;28;20044;-58
2023/02/01 10:19:03;;;;;;;8.70;2.20;;;5.70;84.90;;;;;;5087579;28;20601;-58
2023/02/01 10:21:41;;;;;;;7.72;2.33;;;5.70;84.60;;;;;;5089065;28;20479;-58
2023/02/01 10:24:36;;;;;;;6.15;2.42;;;5.70;84.60;;;;;;5090425;28;20044;-58
2023/02/01 10:27:10;;;;;;;7.93;2.50;;;5.70;84.50;;;;;;5091107;28;20040;-58
2023/02/01 10:29:39;;;;;;;10.07;2.75;;;5.70;84.50;;;;;;5086811;28;20052;-57
2023/02/01 10:32:13;;;;;;;8.68;2.33;;;5.70;84.40;;;;;;5086559;28;20048;-57
2023/02/01 10:34:43;;;;;;;9.13;2.83;;;5.70;84.30;;;;;;5089528;28;20036;-59
2023/02/01 10:37:21;;;;;;;8.02;2.50;;;5.70;84.30;;;;;;5089672;28;20117;-58
2023/02/01 10:39:49;;;;;;;9.77;2.53;;;5.70;84.10;;;;;;5087337;28;20063;-60
2023/02/01 10:42:16;;;;;;;6.75;2.35;;;5.80;84.00;;;;;;5088434;28;20047;-62
2023/02/01 10:44:47;;;;;;;6.38;2.22;;;5.80;83.70;;;;;;5087868;28;20487;-62
2023/02/01 10:47:14;;;;;;;13.40;2.17;;;5.70;83.40;;;;;;5087825;28;20040;-59
2023/02/01 10:49:48;;;;;;;8.48;2.22;;;5.70;83.60;;;;;;5089481;28;20055;-60
2023/02/01 10:52:18;;;;;;;8.35;2.42;;;5.80;83.60;;;;;;5086574;28;20067;-65
2023/02/01 10:54:45;;;;;;;;;;;5.70;83.70;;;;;;5089371;28;20051;-63
2023/02/01 10:57:23;;;;;;;5.38;1.85;;;5.70;83.60;;;;;;5089083;28;20031;-59
2023/02/01 10:59:50;;;;;;;7.35;1.75;;;5.80;83.40;;;;;;5086102;28;20052;-60
2023/02/01 11:02:22;;;;;;;7.95;1.90;;;5.80;83.10;;;;;;5085163;28;20044;-63
2023/02/01 11:04:50;;;;;;;7.78;2.00;;;5.80;83.00;;;;;;5084425;28;20047;-63
2023/02/01 11:07:23;;;;;;;8.75;2.88;;;5.80;83.40;;;;;;5086954;28;20048;-65
2023/02/01 11:09:54;;;;;;;7.95;2.08;;;5.80;83.40;;;;;;5089120;28;20367;-63
2023/02/01 11:12:39;;;;;;;8.20;1.95;;;5.80;83.30;;;;;;5087238;28;20036;-64
2023/02/01 11:15:18;;;;;;;10.75;2.47;;;5.80;83.10;;;;;;5085786;28;20055;-64
2023/02/01 11:17:47;;;;;;;8.88;1.92;;;5.80;83.10;;;;;;5089181;28;20177;-64
2023/02/01 11:20:18;;;;;;;7.30;2.17;;;5.80;83.30;;;;;;5087016;28;20044;-61
2023/02/01 11:22:53;;;;;;;6.20;1.67;;;5.80;83.20;;;;;;5082831;28;20040;-60
2023/02/01 11:25:21;;;;;;;6.88;1.85;;;5.80;83.20;;;;;;5086207;28;20047;-66
2023/02/01 11:27:49;;;;;;;8.88;2.05;;;5.80;83.20;;;;;;5089472;28;20056;-67
2023/02/01 11:30:18;;;;;;;7.47;2.72;;;5.90;83.10;;;;;;5087355;28;20451;-61
2023/02/01 11:32:49;;;;;;;7.60;2.30;;;5.80;82.90;;;;;;5088068;28;20609;-60
2023/02/01 11:35:20;;;;;;;9.48;2.25;;;5.80;82.90;;;;;;5087175;28;20086;-61
2023/02/01 11:37:54;;;;;;;9.63;2.20;;;5.90;82.80;;;;;;5087300;28;20051;-62
2023/02/01 11:40:28;;;;;;;5.22;2.22;;;5.80;82.80;;;;;;5088342;28;20044;-62
2023/02/01 11:42:56;;;;;;;6.10;1.85;;;5.80;82.80;;;;;;5089106;28;20055;-62
2023/02/01 11:45:27;;;;;;;6.57;2.03;;;5.80;82.80;;;;;;5088469;28;24331;-61
2023/02/01 11:47:57;;;;;;;8.15;2.20;;;5.90;82.70;;;;;;5087233;28;20467;-59
2023/02/01 11:50:34;;;;;;;8.70;2.03;;;5.90;82.40;;;;;;5083807;28;20051;-60
2023/02/01 11:53:32;;;;;;;8.68;2.22;;;5.90;82.30;;;;;;5086460;28;20044;-61
2023/02/01 11:56:10;;;;;;;5.53;1.63;;;5.90;82.20;;;;;;5087536;28;20040;-60
2023/02/01 11:59:19;;;;;;;5.78;1.55;;;5.90;82.20;;;;;;5086036;28;20109;-61
2023/02/01 12:02:03;;;;;;;8.38;1.92;;;5.90;82.00;;;;;;5088012;28;20048;-59
2023/02/01 12:05:15;;;;;;;4.78;1.70;;;5.90;81.70;;;;;;5086497;28;20055;-58
2023/02/01 12:08:01;;;;;;;6.88;1.83;;;5.90;81.70;;;;;;5027201;28;20067;-69
2023/02/01 12:10:40;;;;;;;8.70;1.95;;;5.90;81.70;;;;;;5087466;28;20421;-59
2023/02/01 12:13:20;;;;;;;8.80;1.73;;;5.90;81.70;;;;;;5085656;28;20055;-57
2023/02/01 12:15:58;;;;;;;9.38;1.88;;;5.90;81.70;;;;;;5088833;28;20044;-65
2023/02/01 12:18:52;;;;;;;7.55;2.00;;;5.90;82.00;;;;;;5085924;28;20052;-64
2023/02/01 12:21:31;;;;;;;7.03;1.77;;;5.90;82.00;;;;;;5083613;28;20044;-61
2023/02/01 12:24:21;;;;;;;4.72;1.67;;;6.00;82.10;;;;;;5087718;28;20060;-60
2023/02/01 12:26:55;;;;;;;11.80;2.60;;;5.90;82.10;;;;;;5087324;28;20036;-59
2023/02/01 12:29:54;;;;;;;6.55;1.73;;;5.90;82.10;;;;;;5085054;28;20072;-60
2023/02/01 12:32:31;;;;;;;6.05;1.75;;;5.90;82.10;;;;;;5087243;28;20418;-67
2023/02/01 12:35:14;;;;;;;7.32;1.50;;;5.90;81.90;;;;;;5086595;28;20055;-67
2023/02/01 12:37:55;;;;;;;6.05;1.67;;;5.90;81.80;;;;;;5087548;28;20079;-60
2023/02/01 12:40:37;;;;;;;7.40;1.90;;;6.00;81.80;;;;;;5081663;28;20058;-59
2023/02/01 12:43:13;;;;;;;6.28;2.08;;;6.00;81.80;;;;;;5085910;28;20167;-60
2023/02/01 12:45:43;;;;;;;10.85;2.08;;;5.90;81.60;;;;;;5084969;28;20052;-67
2023/02/01 12:48:26;;;;;;;9.25;2.22;;;6.00;81.40;;;;;;5082549;28;20467;-66
2023/02/01 12:50:55;;;;;;;9.57;1.80;;;6.00;81.40;;;;;;5085445;28;20055;-66
2023/02/01 12:53:27;;;;;;;7.88;1.90;;;6.00;81.50;;;;;;5085069;28;20043;-66
2023/02/01 12:55:59;;;;;;;6.38;1.65;;;6.10;81.60;;;;;;5084332;28;20048;-60
2023/02/01 12:58:33;;;;;;;7.10;1.45;;;6.00;81.50;;;;;;5087052;28;20052;-61
2023/02/01 13:01:03;;;;;;;8.70;2.08;;;6.10;81.60;;;;;;5086349;28;20188;-65
2023/02/01 13:03:39;;;;;;;7.90;1.70;;;6.10;81.50;;;;;;5085305;28;20048;-64
2023/02/01 13:06:13;;;;;;;7.97;1.83;;;6.10;81.40;;;;;;5085839;28;20044;-60
2023/02/01 13:08:47;;;;;;;4.97;1.65;;;6.00;81.40;;;;;;5086076;28;20715;-61
2023/02/01 13:11:23;;;;;;;8.13;1.92;;;6.10;81.40;;;;;;5085355;28;20055;-63
2023/02/01 13:14:00;;;;;;;10.65;1.77;;;6.10;81.20;;;;;;5083344;28;20211;-63
2023/02/01 13:16:32;;;;;;;6.85;1.80;;;6.10;81.00;;;;;;5083370;28;20448;-64
2023/02/01 13:19:05;;;;;;;5.75;1.83;;;6.10;81.20;;;;;;5085095;28;20048;-64
2023/02/01 13:21:37;;;;;;;4.15;1.70;;;6.10;81.10;;;;;;5084319;28;20059;-61
2023/02/01 13:24:05;;;;;;;8.25;1.52;;;6.20;80.90;;;;;;5083678;28;20040;-61
2023/02/01 13:26:33;;;;;;;8.50;2.30;;;6.20;81.10;;;;;;5084599;28;20047;-68
2023/02/01 13:29:04;;;;;;;7.68;2.17;;;6.20;81.00;;;;;;5085896;28;20032;-67
2023/02/01 13:31:58;;;;;;;9.07;1.77;;;6.20;80.90;;;;;;5081370;28;20519;-60
2023/02/01 13:34:53;;;;;;;6.57;1.52;;;6.20;81.00;;;;;;5082629;28;20483;-61
2023/02/01 13:37:41;;;;;;;9.50;2.03;;;6.20;80.70;;;;;;5082828;28;20040;-61
2023/02/01 13:40:36;;;;;;;8.00;2.00;;;6.20;80.70;;;;;;5082680;28;20048;-61
2023/02/01 13:43:13;;;;;;;8.88;1.77;;;6.20;80.80;;;;;;5083490;28;20131;-62
2023/02/01 13:45:46;;;;;;;7.65;2.33;;;6.30;80.90;;;;;;5089050;28;20048;-60
2023/02/01 13:48:21;;;;;;;10.25;2.30;;;6.20;80.70;;;;;;5088551;28;20040;-61